createdAt,value
2019-05-29T00:00:23.475Z,10.62
2019-05-29T00:01:23.159Z,10.70
2019-05-29T00:02:23.147Z,10.66
2019-05-29T00:03:23.154Z,10.65
2019-05-29T00:04:23.131Z,10.53
2019-05-29T00:05:23.144Z,10.60
2019-05-29T00:06:23.103Z,10.62
2019-05-29T00:07:23.121Z,10.56
2019-05-29T00:08:23.083Z,10.65
2019-05-29T00:09:23.085Z,10.55
2019-05-29T00:10:23.083Z,10.52
2019-05-29T00:11:23.062Z,10.52
2019-05-29T00:12:23.040Z,10.47
2019-05-29T00:13:23.029Z,10.44
2019-05-29T00:14:27.475Z,10.47
2019-05-29T00:15:23.028Z,10.42
2019-05-29T00:16:23.007Z,10.40
2019-05-29T00:17:22.988Z,10.51
2019-05-29T00:18:22.983Z,10.36
2019-05-29T00:19:22.965Z,10.43
2019-05-29T00:20:22.984Z,10.34
2019-05-29T00:21:22.947Z,10.32
2019-05-29T00:22:22.935Z,10.32
2019-05-29T00:23:22.927Z,10.40
2019-05-29T00:24:23.271Z,10.37
2019-05-29T00:25:22.927Z,10.39
2019-05-29T00:26:22.893Z,10.33
2019-05-29T00:27:22.898Z,10.33
2019-05-29T00:28:22.873Z,10.15
2019-05-29T00:29:22.857Z,10.21
2019-05-29T00:30:22.881Z,10.18
2019-05-29T00:31:22.836Z,10.18
2019-05-29T00:32:22.831Z,10.17
2019-05-29T00:33:22.822Z,10.22
2019-05-29T00:34:22.833Z,10.10
2019-05-29T00:35:22.835Z,10.14
2019-05-29T00:36:22.822Z,10.14
2019-05-29T00:37:22.787Z,10.12
2019-05-29T00:38:22.773Z,10.10
2019-05-29T00:39:22.756Z,10.10
2019-05-29T00:40:22.770Z,10.14
2019-05-29T00:41:22.752Z,10.07
2019-05-29T00:42:22.753Z,10.09
2019-05-29T00:43:22.733Z,10.09
2019-05-29T00:44:33.999Z,10.06
2019-05-29T00:45:23.688Z,10.04
2019-05-29T00:46:22.743Z,10.06
2019-05-29T00:47:22.674Z,10.03
2019-05-29T00:48:22.676Z,10.01
2019-05-29T00:49:22.657Z,9.94
2019-05-29T00:50:22.638Z,10.00
2019-05-29T00:51:22.643Z,9.93
2019-05-29T00:52:22.615Z,9.91
2019-05-29T00:53:22.606Z,9.94
2019-05-29T00:54:22.595Z,9.88
2019-05-29T00:55:22.586Z,9.96
2019-05-29T00:56:22.613Z,9.78
2019-05-29T00:57:22.561Z,9.88
2019-05-29T00:58:22.551Z,9.83
2019-05-29T00:59:22.543Z,9.76
2019-05-29T01:00:22.530Z,9.83
2019-05-29T01:01:22.544Z,9.82
2019-05-29T01:02:22.540Z,9.79
2019-05-29T01:03:22.499Z,9.78
2019-05-29T01:04:22.490Z,9.76
2019-05-29T01:05:22.476Z,9.89
2019-05-29T01:06:22.478Z,9.89
2019-05-29T01:07:22.483Z,9.79
2019-05-29T01:08:22.444Z,9.83
2019-05-29T01:09:22.444Z,9.83
2019-05-29T01:10:22.429Z,9.85
2019-05-29T01:11:22.410Z,9.78
2019-05-29T01:12:22.423Z,9.82
2019-05-29T01:13:22.397Z,9.81
2019-05-29T01:14:22.381Z,9.75
2019-05-29T01:15:22.373Z,9.75
2019-05-29T01:16:22.370Z,9.68
2019-05-29T01:17:22.367Z,9.76
2019-05-29T01:18:22.488Z,9.66
2019-05-29T01:19:22.339Z,9.63
2019-05-29T01:20:22.316Z,9.61
2019-05-29T01:21:22.307Z,9.67
2019-05-29T01:22:22.492Z,9.67
2019-05-29T01:23:22.494Z,9.63
2019-05-29T01:24:22.728Z,9.64
2019-05-29T01:25:22.713Z,9.63
2019-05-29T01:26:22.862Z,9.56
2019-05-29T01:27:23.144Z,9.63
2019-05-29T01:28:23.090Z,9.50
2019-05-29T01:29:23.425Z,9.57
2019-05-29T01:30:23.319Z,9.49
2019-05-29T01:31:23.511Z,9.53
2019-05-29T01:32:22.204Z,9.42
2019-05-29T01:33:24.570Z,9.50
2019-05-29T01:34:22.190Z,9.38
2019-05-29T01:35:22.218Z,9.50
2019-05-29T01:36:22.167Z,9.52
2019-05-29T01:37:22.355Z,9.57
2019-05-29T01:38:23.394Z,9.46
2019-05-29T01:39:23.401Z,9.40
2019-05-29T01:40:27.507Z,9.40
2019-05-29T01:41:23.563Z,9.39
2019-05-29T01:42:22.091Z,9.35
2019-05-29T01:43:22.121Z,9.42
2019-05-29T01:44:22.077Z,9.38
2019-05-29T01:45:22.053Z,9.38
2019-05-29T01:46:22.085Z,9.35
2019-05-29T01:47:22.031Z,9.35
2019-05-29T01:48:22.020Z,9.28
2019-05-29T01:49:22.061Z,9.30
2019-05-29T01:50:21.997Z,9.27
2019-05-29T01:51:21.998Z,9.21
2019-05-29T01:52:22.026Z,9.16
2019-05-29T01:53:21.966Z,9.16
2019-05-29T01:54:21.982Z,9.23
2019-05-29T01:55:21.946Z,9.12
2019-05-29T01:56:21.998Z,9.13
2019-05-29T01:57:21.933Z,9.04
2019-05-29T01:58:22.052Z,9.10
2019-05-29T01:59:21.960Z,9.12
2019-05-29T02:00:22.051Z,9.09
2019-05-29T02:01:22.010Z,9.05
2019-05-29T02:02:22.035Z,9.02
2019-05-29T02:03:22.019Z,9.02
2019-05-29T02:04:22.018Z,9.09
2019-05-29T02:05:22.070Z,9.10
2019-05-29T02:06:21.984Z,9.12
2019-05-29T02:07:22.436Z,9.09
2019-05-29T02:08:22.147Z,9.02
2019-05-29T02:09:22.151Z,9.02
2019-05-29T02:10:22.226Z,8.99
2019-05-29T02:11:21.779Z,9.09
2019-05-29T02:12:22.297Z,8.96
2019-05-29T02:13:21.758Z,9.02
2019-05-29T02:14:22.709Z,9.02
2019-05-29T02:15:30.143Z,8.93
2019-05-29T02:16:22.743Z,8.93
2019-05-29T02:17:21.830Z,8.96
2019-05-29T02:18:22.905Z,8.94
2019-05-29T02:19:21.947Z,8.86
2019-05-29T02:20:22.816Z,8.84
2019-05-29T02:21:22.325Z,8.86
2019-05-29T02:22:21.684Z,8.75
2019-05-29T02:23:22.098Z,8.71
2019-05-29T02:24:21.641Z,8.81
2019-05-29T02:25:22.330Z,8.72
2019-05-29T02:26:22.420Z,8.78
2019-05-29T02:27:21.615Z,8.78
2019-05-29T02:28:22.600Z,8.76
2019-05-29T02:29:22.897Z,8.75
2019-05-29T02:30:23.624Z,8.72
2019-05-29T02:31:22.430Z,8.69
2019-05-29T02:32:21.557Z,8.75
2019-05-29T02:33:22.015Z,8.69
2019-05-29T02:34:22.534Z,8.75
2019-05-29T02:35:22.598Z,8.66
2019-05-29T02:36:22.358Z,8.72
2019-05-29T02:37:22.256Z,8.63
2019-05-29T02:38:23.000Z,8.73
2019-05-29T02:39:22.919Z,8.72
2019-05-29T02:40:23.526Z,8.68
2019-05-29T02:41:23.516Z,8.66
2019-05-29T02:42:22.676Z,8.62
2019-05-29T02:43:23.392Z,8.75
2019-05-29T02:44:23.329Z,8.76
2019-05-29T02:45:21.811Z,8.71
2019-05-29T02:46:21.773Z,8.76
2019-05-29T02:47:21.725Z,8.73
2019-05-29T02:48:23.039Z,8.69
2019-05-29T02:49:21.627Z,8.68
2019-05-29T02:50:22.171Z,8.69
2019-05-29T02:51:22.080Z,8.72
2019-05-29T02:52:21.949Z,8.73
2019-05-29T02:53:22.244Z,8.79
2019-05-29T02:54:22.561Z,8.66
2019-05-29T02:55:22.582Z,8.75
2019-05-29T02:56:22.975Z,8.68
2019-05-29T02:57:22.831Z,8.68
2019-05-29T02:58:22.018Z,8.75
2019-05-29T02:59:22.860Z,8.65
2019-05-29T03:00:21.267Z,8.72
2019-05-29T03:01:21.610Z,8.73
2019-05-29T03:02:21.576Z,8.69
2019-05-29T03:03:21.616Z,8.71
2019-05-29T03:04:21.699Z,8.69
2019-05-29T03:05:21.866Z,8.66
2019-05-29T03:06:22.279Z,8.69
2019-05-29T03:07:22.279Z,8.68
2019-05-29T03:08:22.244Z,8.62
2019-05-29T03:09:22.693Z,8.71
2019-05-29T03:10:22.473Z,8.66
2019-05-29T03:11:22.894Z,8.57
2019-05-29T03:12:22.755Z,8.62
2019-05-29T03:13:21.125Z,8.65
2019-05-29T03:14:21.149Z,8.50
2019-05-29T03:15:21.104Z,8.57
2019-05-29T03:16:21.110Z,8.63
2019-05-29T03:17:21.079Z,8.58
2019-05-29T03:18:21.072Z,8.60
2019-05-29T03:19:21.062Z,8.55
2019-05-29T03:20:21.045Z,8.51
2019-05-29T03:21:21.062Z,8.55
2019-05-29T03:22:21.044Z,8.55
2019-05-29T03:23:21.067Z,8.57
2019-05-29T03:24:21.021Z,8.47
2019-05-29T03:25:21.014Z,8.50
2019-05-29T03:26:24.628Z,8.44
2019-05-29T03:27:22.000Z,8.36
2019-05-29T03:28:20.961Z,8.45
2019-05-29T03:29:20.954Z,8.37
2019-05-29T03:30:20.979Z,8.42
2019-05-29T03:31:20.939Z,8.42
2019-05-29T03:32:20.951Z,8.35
2019-05-29T03:33:20.906Z,8.39
2019-05-29T03:34:20.952Z,8.37
2019-05-29T03:35:20.895Z,8.36
2019-05-29T03:36:20.890Z,8.36
2019-05-29T03:37:20.883Z,8.29
2019-05-29T03:38:20.854Z,8.36
2019-05-29T03:39:20.846Z,8.36
2019-05-29T03:40:20.864Z,8.39
2019-05-29T03:41:20.821Z,8.39
2019-05-29T03:42:20.859Z,8.35
2019-05-29T03:43:20.815Z,8.28
2019-05-29T03:44:20.792Z,8.30
2019-05-29T03:45:20.823Z,8.30
2019-05-29T03:46:31.705Z,8.26
2019-05-29T03:47:21.798Z,8.22
2019-05-29T03:48:20.750Z,8.20
2019-05-29T03:49:20.761Z,8.21
2019-05-29T03:50:20.737Z,8.17
2019-05-29T03:51:20.727Z,8.18
2019-05-29T03:52:20.709Z,8.15
2019-05-29T03:53:20.719Z,8.20
2019-05-29T03:54:20.709Z,8.15
2019-05-29T03:55:20.676Z,8.17
2019-05-29T03:56:20.665Z,8.20
2019-05-29T03:57:20.654Z,8.14
2019-05-29T03:58:20.670Z,8.14
2019-05-29T03:59:20.636Z,8.18
2019-05-29T04:00:20.625Z,8.17
2019-05-29T04:01:20.624Z,8.20
2019-05-29T04:02:20.635Z,8.08
2019-05-29T04:03:20.642Z,8.12
2019-05-29T04:04:20.636Z,8.12
2019-05-29T04:05:20.571Z,8.14
2019-05-29T04:06:20.577Z,8.14
2019-05-29T04:07:20.560Z,8.10
2019-05-29T04:08:20.541Z,8.15
2019-05-29T04:09:20.553Z,8.02
2019-05-29T04:10:20.524Z,8.03
2019-05-29T04:11:20.509Z,8.12
2019-05-29T04:12:20.546Z,8.15
2019-05-29T04:13:20.505Z,8.17
2019-05-29T04:14:20.497Z,7.99
2019-05-29T04:15:20.467Z,8.17
2019-05-29T04:16:20.452Z,8.07
2019-05-29T04:17:20.444Z,8.03
2019-05-29T04:18:20.436Z,8.03
2019-05-29T04:19:20.447Z,8.03
2019-05-29T04:20:20.425Z,8.04
2019-05-29T04:21:20.498Z,8.18
2019-05-29T04:22:20.397Z,8.12
2019-05-29T04:23:20.385Z,8.11
2019-05-29T04:24:20.397Z,8.12
2019-05-29T04:25:20.366Z,8.07
2019-05-29T04:26:20.346Z,8.17
2019-05-29T04:27:20.353Z,8.14
2019-05-29T04:28:20.381Z,8.11
2019-05-29T04:29:20.355Z,8.12
2019-05-29T04:30:20.317Z,8.11
2019-05-29T04:31:20.294Z,8.08
2019-05-29T04:32:20.296Z,8.15
2019-05-29T04:33:20.285Z,8.11
2019-05-29T04:34:20.281Z,8.17
2019-05-29T04:35:20.360Z,8.12
2019-05-29T04:36:20.346Z,8.11
2019-05-29T04:37:28.408Z,8.12
2019-05-29T04:38:20.357Z,8.14
2019-05-29T04:39:28.391Z,8.12
2019-05-29T04:40:20.290Z,8.25
2019-05-29T04:41:20.238Z,8.28
2019-05-29T04:43:37.649Z,8.22
2019-05-29T04:44:38.209Z,8.17
2019-05-29T04:45:39.225Z,8.25
2019-05-29T04:46:43.695Z,8.21
2019-05-29T04:47:37.343Z,8.25
2019-05-29T04:48:44.654Z,8.18
2019-05-29T04:49:37.932Z,8.22
2019-05-29T04:50:40.656Z,8.22
2019-05-29T04:51:39.651Z,8.25
2019-05-29T04:52:40.323Z,8.29
2019-05-29T04:53:38.233Z,8.30
2019-05-29T04:54:37.651Z,8.26
2019-05-29T04:55:36.896Z,8.26
2019-05-29T04:56:36.903Z,8.28
2019-05-29T04:57:37.099Z,8.29
2019-05-29T04:58:36.947Z,8.26
2019-05-29T04:59:37.015Z,8.32
2019-05-29T05:00:37.151Z,8.32
2019-05-29T05:01:35.791Z,8.29
2019-05-29T05:02:35.805Z,8.36
2019-05-29T05:03:35.768Z,8.37
2019-05-29T05:04:35.774Z,8.40
2019-05-29T05:05:35.776Z,8.44
2019-05-29T05:06:35.743Z,8.39
2019-05-29T05:07:35.728Z,8.39
2019-05-29T05:08:35.711Z,8.39
2019-05-29T05:09:35.720Z,8.40
2019-05-29T05:10:35.761Z,8.47
2019-05-29T05:11:35.683Z,8.51
2019-05-29T05:12:35.767Z,8.44
2019-05-29T05:13:35.657Z,8.44
2019-05-29T05:14:35.723Z,8.47
2019-05-29T05:15:35.991Z,8.44
2019-05-29T05:16:35.807Z,8.51
2019-05-29T05:17:36.064Z,8.47
2019-05-29T05:18:35.841Z,8.57
2019-05-29T05:19:35.979Z,8.58
2019-05-29T05:20:36.247Z,8.50
2019-05-29T05:21:43.110Z,8.57
2019-05-29T05:22:36.389Z,8.62
2019-05-29T05:23:36.153Z,8.62
2019-05-29T05:24:36.385Z,8.63
2019-05-29T05:25:36.342Z,8.62
2019-05-29T05:26:36.275Z,8.53
2019-05-29T05:27:36.469Z,8.57
2019-05-29T05:28:36.479Z,8.63
2019-05-29T05:29:36.283Z,8.66
2019-05-29T05:30:36.427Z,8.75
2019-05-29T05:31:36.478Z,8.60
2019-05-29T05:32:36.759Z,8.69
2019-05-29T05:33:36.638Z,8.68
2019-05-29T05:34:36.798Z,8.78
2019-05-29T05:35:36.736Z,8.71
2019-05-29T05:36:36.699Z,8.78
2019-05-29T05:37:36.562Z,8.76
2019-05-29T05:38:35.391Z,8.81
2019-05-29T05:39:35.380Z,8.76
2019-05-29T05:40:38.542Z,8.87
2019-05-29T05:41:35.356Z,8.84
2019-05-29T05:42:35.367Z,8.84
2019-05-29T05:43:35.333Z,8.94
2019-05-29T05:44:35.325Z,8.88
2019-05-29T05:45:35.335Z,8.87
2019-05-29T05:46:35.314Z,8.94
2019-05-29T05:47:50.350Z,8.94
2019-05-29T05:48:37.130Z,8.99
2019-05-29T05:49:35.447Z,8.93
2019-05-29T05:50:35.291Z,9.02
2019-05-29T05:51:38.338Z,8.99
2019-05-29T05:52:37.404Z,9.01
2019-05-29T05:53:35.419Z,9.01
2019-05-29T05:54:35.386Z,9.16
2019-05-29T05:55:35.548Z,9.20
2019-05-29T05:56:35.615Z,9.24
2019-05-29T05:57:35.594Z,9.30
2019-05-29T05:58:35.720Z,9.32
2019-05-29T05:59:35.752Z,9.42
2019-05-29T06:00:35.840Z,9.46
2019-05-29T06:01:35.861Z,9.53
2019-05-29T06:02:35.915Z,9.56
2019-05-29T06:03:35.950Z,9.71
2019-05-29T06:04:35.890Z,9.82
2019-05-29T06:05:36.104Z,9.93
2019-05-29T06:06:36.168Z,10.01
2019-05-29T06:07:36.100Z,10.12
2019-05-29T06:08:36.158Z,10.17
2019-05-29T06:09:36.144Z,10.33
2019-05-29T06:10:36.036Z,10.37
2019-05-29T06:11:36.102Z,10.66
2019-05-29T06:12:36.240Z,10.63
2019-05-29T06:13:36.262Z,10.80
2019-05-29T06:14:35.331Z,11.03
2019-05-29T06:15:34.992Z,11.01
2019-05-29T06:16:34.998Z,11.19
2019-05-29T06:17:34.974Z,11.29
2019-05-29T06:18:34.963Z,11.29
2019-05-29T06:19:35.055Z,11.50
2019-05-29T06:20:34.957Z,11.67
2019-05-29T06:21:34.946Z,11.71
2019-05-29T06:22:34.970Z,11.78
2019-05-29T06:23:34.918Z,11.82
2019-05-29T06:24:35.053Z,11.94
2019-05-29T06:25:36.870Z,12.13
2019-05-29T06:26:34.936Z,12.16
2019-05-29T06:27:35.187Z,12.20
2019-05-29T06:28:35.088Z,12.38
2019-05-29T06:29:35.217Z,12.37
2019-05-29T06:30:36.576Z,12.34
2019-05-29T06:31:35.244Z,12.38
2019-05-29T06:32:35.351Z,12.29
2019-05-29T06:33:35.275Z,12.38
2019-05-29T06:34:35.671Z,12.41
2019-05-29T06:35:35.870Z,12.48
2019-05-29T06:36:35.497Z,12.52
2019-05-29T06:37:35.560Z,12.59
2019-05-29T06:38:35.606Z,12.62
2019-05-29T06:39:35.577Z,12.71
2019-05-29T06:40:36.237Z,12.79
2019-05-29T06:41:35.628Z,12.92
2019-05-29T06:42:35.698Z,12.85
2019-05-29T06:43:35.731Z,12.95
2019-05-29T06:44:36.384Z,13.06
2019-05-29T06:45:35.795Z,13.06
2019-05-29T06:46:36.048Z,13.18
2019-05-29T06:47:36.273Z,13.12
2019-05-29T06:48:55.122Z,13.18
2019-05-29T06:49:35.942Z,13.22
2019-05-29T06:50:35.296Z,13.30
2019-05-29T06:51:35.168Z,13.17
2019-05-29T06:52:35.366Z,13.17
2019-05-29T06:53:35.674Z,13.20
2019-05-29T06:54:35.736Z,13.25
2019-05-29T06:55:35.814Z,13.14
2019-05-29T06:56:35.543Z,13.37
2019-05-29T06:57:35.872Z,13.49
2019-05-29T06:58:35.802Z,13.62
2019-05-29T06:59:34.521Z,13.76
2019-05-29T07:00:35.772Z,13.81
2019-05-29T07:01:35.230Z,13.87
2019-05-29T07:02:34.485Z,13.73
2019-05-29T07:03:35.596Z,13.76
2019-05-29T07:04:34.475Z,13.76
2019-05-29T07:05:35.561Z,13.79
2019-05-29T07:06:34.441Z,13.88
2019-05-29T07:07:35.888Z,13.94
2019-05-29T07:08:41.586Z,14.01
2019-05-29T07:09:35.455Z,14.10
2019-05-29T07:10:34.419Z,14.10
2019-05-29T07:11:34.412Z,14.10
2019-05-29T07:12:34.380Z,14.06
2019-05-29T07:13:35.388Z,14.10
2019-05-29T07:14:34.442Z,14.04
2019-05-29T07:15:34.357Z,14.07
2019-05-29T07:16:45.440Z,14.06
2019-05-29T07:17:36.301Z,14.17
2019-05-29T07:18:34.313Z,14.14
2019-05-29T07:19:47.804Z,14.14
2019-05-29T07:20:36.464Z,14.13
2019-05-29T07:21:34.281Z,14.29
2019-05-29T07:22:34.272Z,14.34
2019-05-29T07:23:34.301Z,14.50
2019-05-29T07:24:34.273Z,14.49
2019-05-29T07:25:34.237Z,14.61
2019-05-29T07:26:34.225Z,14.69
2019-05-29T07:27:34.218Z,14.81
2019-05-29T07:28:34.222Z,14.93
2019-05-29T07:29:34.214Z,14.95
2019-05-29T07:30:34.194Z,14.98
2019-05-29T07:31:34.195Z,15.05
2019-05-29T07:32:34.189Z,15.02
2019-05-29T07:33:34.152Z,15.05
2019-05-29T07:34:49.816Z,15.11
2019-05-29T07:35:35.132Z,15.12
2019-05-29T07:36:34.128Z,15.17
2019-05-29T07:37:34.114Z,15.33
2019-05-29T07:38:34.098Z,15.36
2019-05-29T07:39:34.088Z,15.43
2019-05-29T07:40:35.856Z,15.43
2019-05-29T07:41:34.065Z,15.42
2019-05-29T07:42:34.066Z,15.46
2019-05-29T07:43:34.043Z,15.59
2019-05-29T07:44:34.039Z,15.68
2019-05-29T07:45:34.059Z,15.67
2019-05-29T07:46:34.042Z,15.66
2019-05-29T07:47:33.999Z,15.66
2019-05-29T07:48:34.001Z,15.66
2019-05-29T07:49:38.950Z,15.63
2019-05-29T07:50:35.010Z,15.61
2019-05-29T07:51:33.959Z,15.56
2019-05-29T07:52:33.958Z,15.31
2019-05-29T07:53:33.944Z,15.30
2019-05-29T07:54:33.931Z,15.33
2019-05-29T07:55:33.910Z,15.45
2019-05-29T07:56:33.931Z,15.45
2019-05-29T07:57:33.890Z,15.59
2019-05-29T07:58:33.896Z,15.67
2019-05-29T07:59:33.882Z,15.78
2019-05-29T08:00:36.151Z,15.81
2019-05-29T08:01:34.865Z,15.85
2019-05-29T08:02:33.836Z,15.84
2019-05-29T08:03:33.836Z,16.03
2019-05-29T08:04:33.827Z,15.99
2019-05-29T08:05:33.815Z,15.94
2019-05-29T08:06:33.816Z,15.92
2019-05-29T08:07:33.790Z,16.09
2019-05-29T08:08:33.782Z,16.04
2019-05-29T08:09:33.778Z,16.20
2019-05-29T08:10:33.759Z,16.27
2019-05-29T08:11:33.763Z,16.27
2019-05-29T08:12:33.741Z,16.42
2019-05-29T08:13:33.716Z,16.45
2019-05-29T08:14:33.710Z,16.48
2019-05-29T08:15:33.723Z,16.49
2019-05-29T08:16:33.688Z,16.50
2019-05-29T08:17:33.682Z,16.55
2019-05-29T08:18:33.661Z,16.59
2019-05-29T08:19:33.656Z,16.60
2019-05-29T08:20:33.639Z,16.60
2019-05-29T08:21:33.645Z,16.88
2019-05-29T08:22:34.905Z,16.77
2019-05-29T08:23:33.611Z,16.73
2019-05-29T08:24:33.602Z,16.75
2019-05-29T08:25:33.582Z,16.81
2019-05-29T08:26:33.592Z,16.73
2019-05-29T08:27:33.563Z,16.81
2019-05-29T08:28:33.586Z,16.80
2019-05-29T08:29:33.548Z,16.95
2019-05-29T08:30:33.548Z,16.95
2019-05-29T08:31:33.521Z,16.95
2019-05-29T08:32:33.528Z,16.93
2019-05-29T08:33:33.503Z,16.93
2019-05-29T08:34:33.490Z,16.99
2019-05-29T08:35:33.506Z,16.96
2019-05-29T08:36:33.473Z,16.89
2019-05-29T08:37:33.458Z,16.99
2019-05-29T08:38:33.464Z,17.08
2019-05-29T08:39:36.870Z,17.04
2019-05-29T08:40:33.425Z,16.95
2019-05-29T08:41:33.450Z,16.95
2019-05-29T08:42:33.400Z,17.06
2019-05-29T08:43:33.398Z,17.13
2019-05-29T08:44:33.380Z,17.18
2019-05-29T08:45:33.367Z,17.36
2019-05-29T08:46:33.651Z,17.41
2019-05-29T08:47:33.351Z,17.38
2019-05-29T08:48:33.346Z,17.36
2019-05-29T08:49:33.322Z,17.44
2019-05-29T08:50:33.319Z,17.43
2019-05-29T08:51:33.322Z,17.62
2019-05-29T08:52:33.337Z,17.70
2019-05-29T08:53:33.315Z,17.79
2019-05-29T08:54:33.266Z,17.79
2019-05-29T08:55:33.257Z,17.87
2019-05-29T08:56:33.277Z,17.88
2019-05-29T08:57:33.249Z,18.00
2019-05-29T08:58:33.225Z,18.00
2019-05-29T08:59:33.217Z,18.09
2019-05-29T09:00:33.204Z,18.19
2019-05-29T09:01:33.201Z,18.31
2019-05-29T09:02:33.203Z,18.36
2019-05-29T09:03:33.177Z,18.46
2019-05-29T09:04:33.168Z,18.49
2019-05-29T09:05:33.150Z,18.44
2019-05-29T09:06:33.395Z,18.50
2019-05-29T09:07:33.151Z,18.40
2019-05-29T09:08:33.116Z,18.42
2019-05-29T09:09:33.107Z,18.27
2019-05-29T09:10:33.110Z,18.06
2019-05-29T09:11:33.128Z,18.15
2019-05-29T09:12:33.096Z,18.40
2019-05-29T09:13:33.068Z,18.39
2019-05-29T09:14:33.059Z,18.25
2019-05-29T09:15:33.050Z,18.22
2019-05-29T09:16:33.041Z,18.17
2019-05-29T09:17:34.533Z,18.31
2019-05-29T09:18:33.025Z,18.50
2019-05-29T09:19:33.025Z,18.40
2019-05-29T09:20:57.838Z,18.52
2019-05-29T09:21:33.999Z,18.72
2019-05-29T09:22:32.992Z,18.79
2019-05-29T09:23:32.953Z,18.90
2019-05-29T09:24:32.943Z,18.79
2019-05-29T09:25:32.933Z,18.92
2019-05-29T09:26:41.806Z,19.02
2019-05-29T09:27:32.934Z,18.95
2019-05-29T09:28:32.913Z,18.86
2019-05-29T09:29:32.897Z,18.99
2019-05-29T09:30:32.883Z,19.05
2019-05-29T09:31:32.870Z,18.97
2019-05-29T09:32:49.685Z,18.94
2019-05-29T09:33:33.850Z,18.97
2019-05-29T09:34:32.879Z,19.10
2019-05-29T09:35:32.828Z,19.18
2019-05-29T09:36:32.821Z,19.21
2019-05-29T09:37:32.839Z,19.24
2019-05-29T09:38:32.800Z,19.29
2019-05-29T09:39:32.786Z,19.55
2019-05-29T09:40:32.809Z,19.65
2019-05-29T09:41:32.768Z,19.86
2019-05-29T09:42:32.772Z,19.98
2019-05-29T09:43:32.747Z,19.83
2019-05-29T09:44:38.880Z,19.94
2019-05-29T09:45:33.718Z,19.97
2019-05-29T09:46:32.709Z,20.09
2019-05-29T09:47:32.722Z,20.10
2019-05-29T09:48:46.841Z,20.18
2019-05-29T09:49:33.674Z,20.10
2019-05-29T09:50:48.789Z,20.03
2019-05-29T09:51:33.654Z,19.65
2019-05-29T09:52:32.674Z,19.61
2019-05-29T09:53:32.649Z,19.39
2019-05-29T09:54:32.754Z,19.28
2019-05-29T09:55:32.612Z,19.15
2019-05-29T09:56:32.624Z,19.28
2019-05-29T09:57:32.597Z,19.29
2019-05-29T09:58:32.592Z,19.51
2019-05-29T09:59:32.567Z,19.60
2019-05-29T10:00:32.557Z,19.57
2019-05-29T10:01:32.559Z,19.70
2019-05-29T10:02:32.568Z,19.72
2019-05-29T10:03:32.534Z,19.86
2019-05-29T10:04:32.511Z,19.72
2019-05-29T10:05:32.513Z,19.84
2019-05-29T10:06:32.512Z,19.83
2019-05-29T10:07:32.490Z,19.84
2019-05-29T10:08:32.473Z,19.78
2019-05-29T10:09:32.465Z,19.68
2019-05-29T10:10:32.457Z,19.79
2019-05-29T10:11:32.459Z,20.03
2019-05-29T10:12:32.433Z,19.90
2019-05-29T10:13:32.423Z,19.86
2019-05-29T10:14:32.409Z,19.98
2019-05-29T10:15:32.392Z,20.05
2019-05-29T10:16:32.415Z,20.15
2019-05-29T10:17:32.385Z,20.25
2019-05-29T10:18:33.063Z,20.39
2019-05-29T10:19:32.353Z,20.43
2019-05-29T10:20:39.964Z,20.47
2019-05-29T10:21:40.339Z,20.56
2019-05-29T10:22:39.923Z,20.66
2019-05-29T10:23:32.361Z,20.89
2019-05-29T10:24:39.856Z,20.99
2019-05-29T10:25:32.295Z,20.98
2019-05-29T10:26:39.866Z,21.11
2019-05-29T10:27:32.308Z,20.89
2019-05-29T10:28:55.379Z,20.90
2019-05-29T10:29:33.290Z,20.91
2019-05-29T10:30:39.795Z,21.13
2019-05-29T10:31:32.298Z,21.17
2019-05-29T10:33:42.445Z,21.29
2019-05-29T10:35:57.754Z,20.71
2019-05-29T10:37:05.322Z,20.65
2019-05-29T10:37:57.741Z,20.83
2019-05-29T10:39:05.358Z,20.81
2019-05-29T10:39:57.714Z,21.01
2019-05-29T10:41:07.461Z,21.06
2019-05-29T10:41:57.815Z,21.26
2019-05-29T10:43:05.263Z,21.34
2019-05-29T10:43:57.673Z,21.42
2019-05-29T10:45:05.314Z,21.39
2019-05-29T10:45:57.653Z,21.45
2019-05-29T10:47:05.229Z,21.57
2019-05-29T10:47:57.641Z,21.72
2019-05-29T10:49:05.208Z,21.81
2019-05-29T10:49:57.615Z,21.82
2019-05-29T10:51:05.167Z,21.78
2019-05-29T10:52:12.909Z,21.61
2019-05-29T10:53:05.183Z,21.57
2019-05-29T10:53:59.059Z,21.69
2019-05-29T10:55:05.091Z,21.54
2019-05-29T10:55:57.545Z,21.57
2019-05-29T10:57:05.087Z,21.54
2019-05-29T10:57:57.499Z,21.41
2019-05-29T10:58:59.929Z,20.84
2019-05-29T11:00:05.208Z,20.30
2019-05-29T11:00:57.479Z,20.39
2019-05-29T11:02:05.035Z,20.39
2019-05-29T11:02:57.761Z,20.43
2019-05-29T11:04:05.071Z,20.64
2019-05-29T11:04:59.514Z,20.81
2019-05-29T11:05:57.467Z,20.95
2019-05-29T11:06:57.576Z,20.96
2019-05-29T11:07:57.411Z,20.93
2019-05-29T11:08:57.420Z,20.66
2019-05-29T11:09:57.388Z,20.47
2019-05-29T11:10:57.349Z,20.42
2019-05-29T11:11:57.823Z,20.42
2019-05-29T11:12:57.332Z,20.47
2019-05-29T11:13:57.361Z,20.50
2019-05-29T11:14:57.340Z,20.47
2019-05-29T11:15:57.361Z,20.58
2019-05-29T11:16:57.664Z,20.68
2019-05-29T11:17:57.463Z,20.87
2019-05-29T11:18:57.646Z,20.99
2019-05-29T11:19:58.287Z,21.14
2019-05-29T11:20:57.607Z,21.09
2019-05-29T11:22:01.739Z,21.38
2019-05-29T11:22:58.235Z,21.48
2019-05-29T11:23:58.174Z,21.11
2019-05-29T11:24:58.431Z,20.91
2019-05-29T11:25:58.282Z,20.80
2019-05-29T11:26:58.579Z,20.87
2019-05-29T11:27:58.551Z,20.90
2019-05-29T11:28:58.609Z,21.01
2019-05-29T11:30:06.594Z,21.11
2019-05-29T11:30:57.314Z,21.14
2019-05-29T11:31:57.229Z,21.36
2019-05-29T11:33:00.465Z,21.41
2019-05-29T11:33:57.292Z,21.29
2019-05-29T11:34:57.550Z,21.41
2019-05-29T11:36:09.875Z,21.34
2019-05-29T11:36:58.368Z,21.13
2019-05-29T11:37:58.720Z,21.19
2019-05-29T11:39:02.919Z,21.23
2019-05-29T11:39:58.985Z,21.36
2019-05-29T11:41:19.405Z,21.42
2019-05-29T11:41:58.926Z,21.17
2019-05-29T11:43:00.876Z,21.14
2019-05-29T11:43:57.150Z,21.09
2019-05-29T11:44:57.002Z,21.16
2019-05-29T11:45:57.353Z,21.35
2019-05-29T11:46:58.208Z,21.42
2019-05-29T11:47:59.146Z,21.56
2019-05-29T11:48:57.387Z,21.59
2019-05-29T11:50:07.618Z,21.75
2019-05-29T11:50:58.295Z,21.98
2019-05-29T11:52:18.698Z,22.14
2019-05-29T11:52:58.544Z,22.09
2019-05-29T11:53:57.538Z,22.22
2019-05-29T11:54:59.994Z,22.17
2019-05-29T11:55:58.028Z,21.92
2019-05-29T11:56:57.435Z,21.63
2019-05-29T11:57:57.958Z,21.72
2019-05-29T11:58:57.191Z,21.82
2019-05-29T12:00:00.176Z,21.74
2019-05-29T12:00:59.132Z,21.78
2019-05-29T12:01:57.371Z,21.76
2019-05-29T12:02:57.732Z,21.71
2019-05-29T12:04:13.626Z,21.83
2019-05-29T12:05:01.161Z,21.91
2019-05-29T12:07:06.615Z,21.99
2019-05-29T12:09:31.445Z,21.95
2019-05-29T12:10:17.428Z,22.02
2019-05-29T12:11:16.286Z,21.98
2019-05-29T12:12:16.355Z,21.98
2019-05-29T12:13:16.187Z,22.09
2019-05-29T12:14:23.831Z,21.92
2019-05-29T12:15:18.432Z,21.99
2019-05-29T12:16:24.805Z,22.01
2019-05-29T12:17:16.217Z,22.13
2019-05-29T12:18:24.590Z,22.14
2019-05-29T12:19:16.140Z,22.17
2019-05-29T12:21:33.679Z,22.14
2019-05-29T12:22:41.040Z,22.16
2019-05-29T12:23:33.436Z,22.01
2019-05-29T12:24:41.047Z,22.12
2019-05-29T12:25:33.373Z,21.46
2019-05-29T12:26:35.141Z,21.54
2019-05-29T12:27:41.218Z,21.38
2019-05-29T12:29:50.138Z,21.13
2019-05-29T12:32:11.016Z,21.39
2019-05-29T12:33:08.156Z,21.38
2019-05-29T12:34:19.403Z,21.09
2019-05-29T12:35:08.043Z,21.06
2019-05-29T12:36:08.194Z,21.08
2019-05-29T12:37:08.137Z,21.16
2019-05-29T12:38:08.025Z,21.23
2019-05-29T12:40:25.476Z,21.46
2019-05-29T12:41:25.616Z,21.64
2019-05-29T12:42:25.257Z,21.72
2019-05-29T12:43:27.774Z,21.98
2019-05-29T12:44:25.244Z,22.13
2019-05-29T12:45:25.195Z,22.13
2019-05-29T12:46:25.211Z,22.17
2019-05-29T12:47:25.197Z,22.23
2019-05-29T12:48:25.189Z,22.29
2019-05-29T12:49:25.158Z,22.37
2019-05-29T12:50:25.168Z,22.32
2019-05-29T12:51:25.206Z,22.31
2019-05-29T12:52:25.123Z,22.38
2019-05-29T12:53:30.439Z,22.37
2019-05-29T12:54:26.118Z,22.38
2019-05-29T12:55:25.135Z,22.41
2019-05-29T12:56:25.111Z,22.46
2019-05-29T12:57:25.098Z,22.56
2019-05-29T12:58:25.089Z,22.67
2019-05-29T12:59:25.102Z,22.80
2019-05-29T13:00:25.043Z,22.96
2019-05-29T13:01:25.029Z,23.04
2019-05-29T13:02:25.043Z,23.17
2019-05-29T13:03:25.010Z,23.19
2019-05-29T13:04:25.003Z,23.08
2019-05-29T13:05:24.987Z,23.12
2019-05-29T13:06:24.980Z,22.99
2019-05-29T13:07:24.985Z,22.94
2019-05-29T13:08:24.956Z,22.92
2019-05-29T13:09:24.944Z,23.08
2019-05-29T13:10:30.601Z,23.17
2019-05-29T13:11:25.959Z,23.07
2019-05-29T13:12:24.938Z,23.11
2019-05-29T13:13:24.904Z,22.93